createdAt,value
2022-08-05T00:00:50.772Z,4.50
2022-08-05T00:03:52.523Z,4.70
2022-08-05T00:06:54.839Z,4.80
2022-08-05T00:09:57.532Z,4.80
2022-08-05T00:13:00.272Z,4.57
2022-08-05T00:16:02.176Z,4.88
2022-08-05T00:19:04.983Z,4.87
2022-08-05T00:22:07.630Z,4.72
2022-08-05T00:25:14.349Z,4.90
2022-08-05T00:28:21.185Z,4.60
2022-08-05T00:31:54.035Z,5.03
2022-08-05T00:35:06.695Z,4.47
2022-08-05T00:38:09.534Z,4.65
2022-08-05T00:41:11.657Z,4.65
2022-08-05T00:44:13.851Z,4.90
2022-08-05T00:47:16.468Z,4.60
2022-08-05T00:50:18.786Z,4.50
2022-08-05T00:53:45.031Z,5.30
2022-08-05T00:56:51.298Z,5.28
2022-08-05T00:59:53.748Z,5.40
2022-08-05T01:02:56.724Z,5.07
2022-08-05T01:05:58.777Z,4.97
2022-08-05T01:09:00.589Z,5.55
2022-08-05T01:12:18.703Z,5.95
2022-08-05T01:15:36.502Z,5.72
2022-08-05T01:18:43.118Z,5.88
2022-08-05T01:22:07.029Z,6.00
2022-08-05T01:25:43.612Z,6.20
2022-08-05T01:29:08.900Z,6.05
2022-08-05T01:32:18.546Z,5.60
2022-08-05T01:35:50.678Z,6.20
2022-08-05T01:38:49.966Z,6.00
2022-08-05T01:41:54.495Z,5.95
2022-08-05T01:44:59.919Z,5.85
2022-08-05T01:48:10.462Z,5.82
2022-08-05T01:51:14.502Z,5.32
2022-08-05T01:54:20.209Z,5.60
2022-08-05T01:58:12.557Z,5.55
2022-08-05T02:00:56.740Z,5.72
2022-08-05T02:04:01.547Z,5.28
2022-08-05T02:07:03.576Z,5.60
2022-08-05T02:10:08.307Z,5.80
2022-08-05T02:13:17.269Z,4.95
2022-08-05T02:16:44.161Z,5.43
2022-08-05T02:19:54.783Z,5.07
2022-08-05T02:23:03.065Z,5.22
2022-08-05T02:26:09.532Z,5.60
2022-08-05T02:29:21.614Z,5.40
2022-08-05T02:32:31.489Z,5.38
2022-08-05T02:35:38.543Z,5.18
2022-08-05T02:38:56.031Z,5.30
2022-08-05T02:42:01.656Z,5.63
2022-08-05T02:45:03.831Z,5.30
2022-08-05T02:48:12.377Z,5.55
2022-08-05T02:51:17.164Z,5.43
2022-08-05T02:54:35.793Z,5.68
2022-08-05T02:58:10.667Z,5.60
2022-08-05T03:01:02.809Z,5.40
2022-08-05T03:04:13.970Z,5.30
2022-08-05T03:07:17.621Z,5.20
2022-08-05T03:10:38.074Z,5.65
2022-08-05T03:13:52.095Z,5.27
2022-08-05T03:17:02.692Z,5.47
2022-08-05T03:20:10.152Z,5.18
2022-08-05T03:23:12.866Z,5.22
2022-08-05T03:26:31.755Z,5.40
2022-08-05T03:29:45.796Z,5.20
2022-08-05T03:32:56.796Z,5.50
2022-08-05T03:35:58.998Z,5.32
2022-08-05T03:39:07.805Z,5.50
2022-08-05T03:42:09.632Z,5.43
2022-08-05T03:45:22.087Z,5.13
2022-08-05T03:48:25.303Z,5.57
2022-08-05T03:52:37.397Z,5.35
2022-08-05T03:56:05.120Z,5.30
2022-08-05T03:58:36.747Z,5.72
2022-08-05T04:01:42.471Z,5.77
2022-08-05T04:04:47.635Z,5.75
2022-08-05T04:07:57.543Z,5.70
2022-08-05T04:11:03.238Z,5.78
2022-08-05T04:14:05.291Z,5.60
2022-08-05T04:17:09.281Z,5.50
2022-08-05T04:20:21.113Z,5.57
2022-08-05T04:23:57.109Z,5.68
2022-08-05T04:26:48.789Z,5.75
2022-08-05T04:29:50.446Z,5.63
2022-08-05T04:32:52.643Z,5.57
2022-08-05T04:36:16.152Z,5.63
2022-08-05T04:39:16.061Z,5.95
2022-08-05T04:42:17.787Z,5.90
2022-08-05T04:45:47.729Z,5.72
2022-08-05T04:48:48.749Z,5.80
2022-08-05T04:51:58.262Z,5.40
2022-08-05T04:55:14.687Z,5.47
2022-08-05T04:58:20.193Z,5.65
2022-08-05T05:02:08.030Z,5.72
2022-08-05T05:04:47.857Z,5.63
2022-08-05T05:07:52.895Z,5.70
2022-08-05T05:10:58.343Z,5.93
2022-08-05T05:14:00.818Z,5.60
2022-08-05T05:17:07.576Z,5.70
2022-08-05T05:20:13.106Z,5.57
2022-08-05T05:23:19.515Z,5.68
2022-08-05T05:26:28.451Z,5.75
2022-08-05T05:30:03.628Z,5.45
2022-08-05T05:32:56.364Z,5.25
2022-08-05T05:35:58.116Z,5.20
2022-08-05T05:39:03.764Z,5.30
2022-08-05T05:42:06.133Z,4.90
2022-08-05T05:45:09.234Z,4.60
2022-08-05T05:48:10.858Z,4.93
2022-08-05T05:51:22.232Z,4.73
2022-08-05T05:54:49.735Z,4.75
2022-08-05T05:57:52.767Z,4.60
2022-08-05T06:00:54.747Z,4.93
2022-08-05T06:04:01.700Z,4.68
2022-08-05T06:07:05.186Z,4.93
2022-08-05T06:10:10.513Z,4.90
2022-08-05T06:13:12.692Z,4.80
2022-08-05T06:16:28.596Z,4.63
2022-08-05T06:19:35.573Z,4.93
2022-08-05T06:22:37.578Z,4.73
2022-08-05T06:26:12.788Z,4.82
2022-08-05T06:29:23.658Z,5.00
2022-08-05T06:32:29.229Z,5.07
2022-08-05T06:36:07.702Z,4.60
2022-08-05T06:38:54.723Z,4.70
2022-08-05T06:42:03.859Z,4.72
2022-08-05T06:45:08.297Z,5.28
2022-08-05T06:48:36.497Z,5.00
2022-08-05T06:51:32.786Z,5.10
2022-08-05T06:54:34.711Z,5.10
2022-08-05T06:58:03.890Z,4.78
2022-08-05T07:01:01.123Z,5.03
2022-08-05T07:04:03.292Z,5.10
2022-08-05T07:07:08.008Z,5.18
2022-08-05T07:10:10.406Z,5.13
2022-08-05T07:13:57.184Z,5.50
2022-08-05T07:18:00.304Z,5.32
2022-08-05T07:20:38.914Z,5.30
2022-08-05T07:23:49.771Z,5.30
2022-08-05T07:26:53.872Z,5.13
2022-08-05T07:30:24.260Z,5.00
2022-08-05T07:33:21.483Z,4.90
2022-08-05T07:36:39.056Z,4.80
2022-08-05T07:40:04.290Z,5.22
2022-08-05T07:43:07.368Z,5.10
2022-08-05T07:46:24.390Z,4.90
2022-08-05T07:49:27.673Z,5.60
2022-08-05T07:52:29.618Z,5.40
2022-08-05T07:56:04.947Z,5.60
2022-08-05T07:58:57.766Z,5.47
2022-08-05T08:02:03.037Z,6.00
2022-08-05T08:05:05.529Z,5.10
2022-08-05T08:08:07.157Z,4.85
2022-08-05T08:11:15.975Z,4.63
2022-08-05T08:14:18.403Z,4.40
2022-08-05T08:17:21.713Z,5.05
2022-08-05T08:20:44.442Z,4.75
2022-08-05T08:24:01.571Z,4.97
2022-08-05T08:27:07.324Z,4.72
2022-08-05T08:30:28.465Z,4.43
2022-08-05T08:33:37.471Z,4.45
2022-08-05T08:36:49.946Z,4.68
2022-08-05T08:39:54.430Z,4.70
2022-08-05T08:42:56.618Z,4.57
2022-08-05T08:46:01.047Z,4.07
2022-08-05T08:50:23.236Z,4.10
2022-08-05T08:52:30.459Z,3.78
2022-08-05T08:56:03.653Z,4.03
2022-08-05T08:58:59.299Z,3.80
2022-08-05T09:02:18.465Z,4.10
2022-08-05T09:05:38.309Z,4.10
2022-08-05T09:08:40.878Z,4.38
2022-08-05T09:11:53.194Z,4.38
2022-08-05T09:15:05.772Z,3.92
2022-08-05T09:18:09.026Z,3.80
2022-08-05T09:21:11.488Z,3.63
2022-08-05T09:24:13.685Z,3.38
2022-08-05T09:28:04.170Z,3.22
2022-08-05T09:31:22.707Z,3.35
2022-08-05T09:34:26.464Z,3.53
2022-08-05T09:38:16.648Z,3.67
2022-08-05T09:40:53.593Z,3.42
2022-08-05T09:43:55.656Z,3.30
2022-08-05T09:47:12.819Z,3.00
2022-08-05T09:50:38.012Z,2.83
2022-08-05T09:53:55.207Z,2.80
2022-08-05T09:57:01.479Z,2.70
2022-08-05T10:00:14.077Z,3.03
2022-08-05T10:03:15.722Z,2.92
2022-08-05T10:06:19.955Z,2.80
2022-08-05T10:09:27.693Z,3.00
2022-08-05T10:12:40.951Z,2.97
2022-08-05T10:15:51.958Z,3.15
2022-08-05T10:20:03.192Z,2.90
2022-08-05T10:22:51.082Z,2.67
2022-08-05T10:25:54.977Z,2.75
2022-08-05T10:28:56.707Z,3.10
2022-08-05T10:32:54.350Z,2.92
2022-08-05T10:35:20.493Z,2.83
2022-08-05T10:38:36.996Z,2.87
2022-08-05T10:42:00.895Z,3.05
2022-08-05T10:45:21.007Z,3.05
2022-08-05T10:48:52.572Z,3.10
2022-08-05T10:52:03.282Z,2.78
2022-08-05T10:55:10.254Z,3.07
2022-08-05T10:58:17.950Z,3.10
2022-08-05T11:01:55.471Z,3.10
2022-08-05T11:04:55.247Z,2.90
2022-08-05T11:08:02.439Z,3.20
2022-08-05T11:11:52.019Z,2.97
2022-08-05T11:15:19.237Z,3.20
2022-08-05T11:18:29.964Z,3.00
2022-08-05T11:21:48.926Z,3.28
2022-08-05T11:26:05.450Z,3.10
2022-08-05T11:28:53.637Z,3.37
2022-08-05T11:32:26.570Z,3.17
2022-08-05T11:36:08.348Z,3.10
2022-08-05T11:39:12.168Z,3.28
2022-08-05T11:42:18.557Z,3.17
2022-08-05T11:46:14.497Z,3.00
2022-08-05T11:48:42.395Z,3.20
2022-08-05T11:51:49.772Z,3.30
2022-08-05T11:54:55.026Z,3.10
2022-08-05T11:58:09.649Z,3.25
2022-08-05T12:01:19.308Z,3.43
2022-08-05T12:04:21.805Z,3.40
2022-08-05T12:08:03.797Z,3.20
2022-08-05T12:10:48.878Z,3.30
2022-08-05T12:14:04.154Z,3.17
2022-08-05T12:18:03.651Z,3.20
2022-08-05T12:20:38.525Z,2.97
2022-08-05T12:23:43.171Z,9.30
2022-08-05T12:26:54.037Z,3.92
2022-08-05T12:30:06.198Z,3.33
2022-08-05T12:33:27.344Z,3.27
2022-08-05T12:36:30.762Z,3.22
2022-08-05T12:39:34.451Z,2.92
2022-08-05T12:42:40.122Z,3.50
2022-08-05T12:45:55.905Z,3.47
2022-08-05T12:49:18.902Z,3.30
2022-08-05T12:52:25.382Z,3.38
2022-08-05T12:55:32.487Z,3.17
2022-08-05T12:58:49.830Z,3.40
2022-08-05T13:02:07.113Z,3.20
2022-08-05T13:05:12.601Z,3.30
2022-08-05T13:08:18.384Z,3.70
2022-08-05T13:11:59.760Z,3.53
2022-08-05T13:14:46.273Z,3.50
2022-08-05T13:18:01.166Z,3.65
2022-08-05T13:21:02.939Z,3.60
2022-08-05T13:24:08.967Z,3.50
2022-08-05T13:27:11.039Z,3.65
2022-08-05T13:30:34.451Z,3.90
2022-08-05T13:34:23.086Z,3.85
2022-08-05T13:37:00.264Z,3.60
2022-08-05T13:40:16.065Z,3.70
2022-08-05T13:43:24.257Z,3.83
2022-08-05T13:47:04.986Z,3.72
2022-08-05T13:50:11.261Z,3.90
2022-08-05T13:53:15.798Z,4.00
2022-08-05T13:56:18.473Z,3.83
2022-08-05T13:59:24.235Z,4.03
2022-08-05T14:02:29.935Z,3.67
2022-08-05T14:06:24.478Z,3.80
2022-08-05T14:08:54.702Z,3.90
2022-08-05T14:12:04.298Z,4.10
2022-08-05T14:16:08.733Z,3.88
2022-08-05T14:18:39.653Z,3.90
2022-08-05T14:22:10.351Z,3.70
2022-08-05T14:25:06.310Z,4.00
2022-08-05T14:28:27.027Z,3.80
2022-08-05T14:32:02.296Z,3.72
2022-08-05T14:34:51.583Z,3.78
2022-08-05T14:37:55.450Z,3.85
2022-08-05T14:40:57.470Z,3.87
2022-08-05T14:44:09.799Z,3.92
2022-08-05T14:47:58.325Z,3.83
2022-08-05T14:50:43.529Z,3.97
2022-08-05T14:54:26.027Z,3.70
2022-08-05T14:57:09.593Z,3.60
2022-08-05T15:00:15.700Z,3.80
2022-08-05T15:03:21.600Z,3.70
2022-08-05T15:06:28.005Z,4.18
2022-08-05T15:09:52.169Z,3.88
2022-08-05T15:13:00.989Z,3.90
2022-08-05T15:16:05.665Z,3.60
2022-08-05T15:19:08.594Z,3.70
2022-08-05T15:22:27.162Z,4.00
2022-08-05T15:25:51.915Z,4.03
2022-08-05T15:28:52.090Z,3.43
2022-08-05T15:31:53.868Z,3.88
2022-08-05T15:34:55.956Z,3.95
2022-08-05T15:38:32.636Z,3.60
2022-08-05T15:41:24.403Z,4.10
2022-08-05T15:44:30.349Z,3.63
2022-08-05T15:47:32.579Z,3.80
2022-08-05T15:50:37.646Z,3.80
2022-08-05T15:53:51.231Z,3.80
2022-08-05T15:56:53.344Z,3.75
2022-08-05T15:59:57.792Z,3.50
2022-08-05T16:03:00.084Z,3.38
2022-08-05T16:06:02.361Z,3.65
2022-08-05T16:09:04.256Z,3.30
2022-08-05T16:12:06.531Z,3.80
2022-08-05T16:15:09.497Z,3.70
2022-08-05T16:18:12.320Z,3.50
2022-08-05T16:21:16.099Z,3.30
2022-08-05T16:24:39.897Z,3.40
2022-08-05T16:27:47.393Z,3.00
2022-08-05T16:31:03.397Z,3.33
2022-08-05T16:34:05.696Z,3.10
2022-08-05T16:38:02.248Z,3.40
2022-08-05T16:40:33.141Z,3.30
2022-08-05T16:43:35.242Z,3.47
2022-08-05T16:46:37.483Z,3.60
2022-08-05T16:49:43.072Z,3.33
2022-08-05T16:52:46.066Z,3.20
2022-08-05T16:55:47.914Z,3.30
2022-08-05T16:58:49.991Z,3.28
2022-08-05T17:01:53.602Z,3.30
2022-08-05T17:04:57.376Z,3.13
2022-08-05T17:07:59.034Z,3.47
2022-08-05T17:11:01.374Z,3.20
2022-08-05T17:14:06.285Z,3.38
2022-08-05T17:17:14.214Z,3.73
2022-08-05T17:20:16.632Z,3.75
2022-08-05T17:24:05.534Z,3.53
2022-08-05T17:26:40.869Z,3.15
2022-08-05T17:29:42.700Z,3.38
2022-08-05T17:32:44.496Z,3.20
2022-08-05T17:36:07.925Z,3.10
2022-08-05T17:39:23.793Z,3.08
2022-08-05T17:42:31.986Z,3.00
2022-08-05T17:45:38.665Z,3.42
2022-08-05T17:48:40.548Z,3.30
2022-08-05T17:51:46.873Z,3.20
2022-08-05T17:54:52.337Z,3.42
2022-08-05T17:57:54.254Z,3.20
2022-08-05T18:00:57.044Z,3.30
2022-08-05T18:04:04.571Z,3.27
2022-08-05T18:07:07.797Z,3.50
2022-08-05T18:10:21.430Z,3.55
2022-08-05T18:13:23.256Z,3.20
2022-08-05T18:16:27.441Z,3.08
2022-08-05T18:19:29.947Z,3.30
2022-08-05T18:22:46.018Z,3.50
2022-08-05T18:25:57.373Z,3.60
2022-08-05T18:29:00.340Z,3.60
2022-08-05T18:32:02.974Z,3.80
2022-08-05T18:35:05.253Z,3.80
2022-08-05T18:38:07.723Z,3.83
2022-08-05T18:41:57.051Z,3.50
2022-08-05T18:44:35.170Z,4.07
2022-08-05T18:47:56.688Z,3.97
2022-08-05T18:52:05.714Z,4.00
2022-08-05T18:54:42.750Z,4.30
2022-08-05T18:57:52.574Z,4.55
2022-08-05T19:00:58.525Z,4.95
2022-08-05T19:04:06.019Z,4.90
2022-08-05T19:07:14.008Z,5.23
2022-08-05T19:10:17.518Z,4.80
2022-08-05T19:13:19.767Z,4.80
2022-08-05T19:16:25.067Z,3.85
2022-08-05T19:19:30.867Z,3.22
2022-08-05T19:22:32.789Z,3.10
2022-08-05T19:25:42.011Z,3.00
2022-08-05T19:28:45.478Z,2.90
2022-08-05T19:31:50.886Z,3.13
2022-08-05T19:34:54.924Z,2.92
2022-08-05T19:38:06.575Z,2.70
2022-08-05T19:41:10.386Z,2.90
2022-08-05T19:44:13.250Z,2.70
2022-08-05T19:47:16.278Z,2.70
2022-08-05T19:50:19.967Z,2.80
2022-08-05T19:54:04.563Z,2.90
2022-08-05T19:56:44.228Z,2.97
2022-08-05T19:59:55.411Z,2.97
2022-08-05T20:03:13.247Z,3.00
2022-08-05T20:06:28.993Z,3.00
2022-08-05T20:09:53.999Z,3.20
2022-08-05T20:12:59.917Z,2.97
2022-08-05T20:16:26.398Z,3.40
2022-08-05T20:19:36.018Z,3.47
2022-08-05T20:22:38.209Z,3.38
2022-08-05T20:25:43.212Z,2.77
2022-08-05T20:28:50.522Z,2.90
2022-08-05T20:31:57.673Z,2.80
2022-08-05T20:34:59.804Z,3.17
2022-08-05T20:38:07.946Z,3.90
2022-08-05T20:41:10.137Z,3.30
2022-08-05T20:44:19.191Z,3.00
2022-08-05T20:47:32.745Z,2.90
2022-08-05T20:50:36.941Z,3.20
2022-08-05T20:53:41.337Z,3.17
2022-08-05T20:56:42.975Z,3.20
2022-08-05T20:59:46.305Z,3.22
2022-08-05T21:03:08.132Z,3.38
2022-08-05T21:06:27.489Z,3.40
2022-08-05T21:09:30.265Z,3.40
2022-08-05T21:12:36.089Z,3.47
2022-08-05T21:15:37.675Z,3.55
2022-08-05T21:18:39.368Z,4.07
2022-08-05T21:21:51.005Z,4.15
2022-08-05T21:24:54.403Z,4.10
2022-08-05T21:27:56.523Z,3.90
2022-08-05T21:30:58.975Z,4.00
2022-08-05T21:34:00.711Z,4.45
2022-08-05T21:37:04.787Z,4.70
2022-08-05T21:40:07.252Z,4.78
2022-08-05T21:43:24.227Z,4.80
2022-08-05T21:46:26.652Z,5.43
2022-08-05T21:49:48.342Z,5.68
2022-08-05T21:52:52.289Z,5.30
2022-08-05T21:56:05.809Z,5.85
2022-08-05T21:59:24.105Z,5.40
2022-08-05T22:02:27.981Z,6.43
2022-08-05T22:05:29.611Z,5.53
2022-08-05T22:08:51.835Z,6.40
2022-08-05T22:11:54.658Z,6.18
2022-08-05T22:14:58.760Z,5.50
2022-08-05T22:18:01.693Z,5.20
2022-08-05T22:21:04.190Z,5.07
2022-08-05T22:24:39.564Z,4.90
2022-08-05T22:28:08.497Z,4.95
2022-08-05T22:31:06.087Z,5.43
2022-08-05T22:34:08.008Z,4.95
2022-08-05T22:37:10.023Z,5.05
2022-08-05T22:40:16.813Z,5.00
2022-08-05T22:43:37.295Z,4.97
2022-08-05T22:46:40.979Z,5.10
2022-08-05T22:50:21.445Z,4.57
2022-08-05T22:53:09.833Z,4.60
2022-08-05T22:56:11.758Z,4.60
2022-08-05T22:59:46.537Z,4.50
2022-08-05T23:02:40.110Z,4.20
2022-08-05T23:05:48.450Z,4.60
2022-08-05T23:08:52.313Z,4.53
2022-08-05T23:11:54.042Z,4.68
2022-08-05T23:14:55.689Z,4.43
2022-08-05T23:18:00.670Z,4.63
2022-08-05T23:21:03.576Z,4.93
2022-08-05T23:24:11.305Z,4.43
2022-08-05T23:27:13.459Z,4.88
2022-08-05T23:30:15.133Z,4.75
2022-08-05T23:33:25.589Z,4.87
2022-08-05T23:36:28.379Z,4.53
2022-08-05T23:39:53.568Z,4.65
2022-08-05T23:42:55.711Z,4.63
2022-08-05T23:45:57.691Z,4.70
2022-08-05T23:49:03.788Z,4.43
2022-08-05T23:52:30.557Z,5.10
2022-08-05T23:55:33.143Z,5.45
2022-08-05T23:58:34.775Z,4.90
